Time,TemperatureF,DewpointF,PressureIn,WindDirection,WindDirectionDegrees,WindSpeedMPH,WindSpeedGustMPH,Humidity,HourlyPrecipIn,Conditions,Clouds,dailyrainin,SoftwareType,DateUTC
2013-02-21 00:00:00,25.5,10.8,30.01,WNW,292,0.0,0.0,53,0.00,,OVC,4.40,VWS V14.00,2013-02-21 05:00:00,
2013-02-21 00:05:00,25.5,10.8,30.01,NW,315,0.0,0.0,53,0.00,,OVC,0.00,VWS V14.00,2013-02-21 05:05:00,
2013-02-21 00:10:00,25.3,11.0,30.01,NW,315,0.0,0.0,54,0.00,,OVC,0.00,VWS V14.00,2013-02-21 05:10:00,
2013-02-21 00:15:00,25.5,11.2,30.01,NNE,22,0.0,0.0,54,0.00,,OVC,0.00,VWS V14.00,2013-02-21 05:15:00,
2013-02-21 00:20:00,25.5,11.2,30.01,WNW,292,0.0,0.0,54,0.00,,OVC,0.00,VWS V14.00,2013-02-21 05:20:00,
2013-02-21 00:25:00,25.5,11.2,30.02,West,270,0.0,0.0,54,0.00,,OVC,0.00,VWS V14.00,2013-02-21 05:25:00,
2013-02-21 00:30:00,25.3,11.0,30.01,WNW,292,0.0,0.0,54,0.00,,OVC,0.00,VWS V14.00,2013-02-21 05:30:00,
2013-02-21 00:35:00,25.1,10.8,30.01,WSW,248,0.0,0.0,54,0.00,,OVC,0.00,VWS V14.00,2013-02-21 05:35:00,
2013-02-21 00:40:00,25.1,10.8,30.01,West,270,0.0,0.0,54,0.00,,OVC,0.00,VWS V14.00,2013-02-21 05:40:00,
2013-02-21 00:45:00,25.1,10.8,30.01,NNE,22,0.0,0.0,54,0.00,,OVC,0.00,VWS V14.00,2013-02-21 05:45:00,
2013-02-21 00:50:00,25.1,10.8,30.02,WSW,248,0.0,0.0,54,0.00,,OVC,0.00,VWS V14.00,2013-02-21 05:50:00,
2013-02-21 00:55:00,25.1,10.8,30.02,West,270,3.3,3.3,54,0.00,,OVC,0.00,VWS V14.00,2013-02-21 05:55:00,
2013-02-21 01:00:00,24.9,10.6,30.02,NW,315,0.0,0.0,54,0.00,,OVC,0.00,VWS V14.00,2013-02-21 06:00:00,
2013-02-21 01:05:00,24.9,11.0,30.02,WNW,292,0.0,0.0,55,0.00,,OVC,0.00,VWS V14.00,2013-02-21 06:05:00,
2013-02-21 01:10:00,24.9,11.0,30.02,WNW,292,0.0,0.0,55,0.00,,OVC,0.00,VWS V14.00,2013-02-21 06:10:00,
2013-02-21 01:15:00,24.9,11.0,30.02,NW,315,0.0,0.0,55,0.00,,OVC,0.00,VWS V14.00,2013-02-21 06:15:00,
2013-02-21 01:20:00,24.6,10.8,30.02,West,270,0.0,0.0,55,0.00,,OVC,0.00,VWS V14.00,2013-02-21 06:20:00,
2013-02-21 01:25:00,24.6,10.8,30.02,WNW,292,0.0,0.0,55,0.00,,OVC,0.00,VWS V14.00,2013-02-21 06:25:00,
2013-02-21 01:30:00,24.6,11.2,30.02,West,270,0.0,0.0,56,0.00,,OVC,0.00,VWS V14.00,2013-02-21 06:30:00,
2013-02-21 01:35:00,24.4,11.0,30.02,NW,315,0.0,0.0,56,0.00,,OVC,0.00,VWS V14.00,2013-02-21 06:35:00,
2013-02-21 01:40:00,24.4,11.0,30.01,NW,315,0.0,0.0,56,0.00,,OVC,0.00,VWS V14.00,2013-02-21 06:40:00,
2013-02-21 01:45:00,24.4,11.0,30.02,WNW,292,0.0,0.0,56,0.00,,OVC,0.00,VWS V14.00,2013-02-21 06:45:00,
2013-02-21 01:50:00,24.4,11.0,30.01,WNW,292,0.0,0.0,56,0.00,,OVC,0.00,VWS V14.00,2013-02-21 06:50:00,
2013-02-21 01:55:00,24.0,10.6,30.01,West,270,0.0,0.0,56,0.00,,OVC,0.00,VWS V14.00,2013-02-21 06:55:00,
2013-02-21 02:00:00,24.4,11.0,30.01,NW,315,0.0,0.0,56,0.00,,OVC,0.00,VWS V14.00,2013-02-21 07:00:00,
2013-02-21 02:05:00,24.0,10.6,30.02,NNW,338,0.0,0.0,56,0.00,,OVC,0.00,VWS V14.00,2013-02-21 07:05:00,
2013-02-21 02:10:00,24.0,11.0,30.01,West,270,0.0,0.0,57,0.00,,OVC,0.00,VWS V14.00,2013-02-21 07:10:00,
2013-02-21 02:15:00,24.0,11.0,30.01,West,270,0.0,0.0,57,0.00,,OVC,0.00,VWS V14.00,2013-02-21 07:15:00,
2013-02-21 02:20:00,24.0,11.0,30.01,WNW,292,0.0,0.0,57,0.00,,OVC,0.00,VWS V14.00,2013-02-21 07:20:00,
2013-02-21 02:25:00,23.9,10.9,30.01,West,270,0.0,0.0,57,0.00,,OVC,0.00,VWS V14.00,2013-02-21 07:25:00,
2013-02-21 02:30:00,23.9,11.3,30.01,NW,315,0.0,0.0,58,0.00,,OVC,0.00,VWS V14.00,2013-02-21 07:30:00,
2013-02-21 02:35:00,23.7,11.1,30.01,WNW,292,0.0,0.0,58,0.00,,OVC,0.00,VWS V14.00,2013-02-21 07:35:00,
2013-02-21 02:40:00,23.7,11.1,30.01,WSW,248,0.0,0.0,58,0.00,,OVC,0.00,VWS V14.00,2013-02-21 07:40:00,
2013-02-21 02:45:00,23.7,11.1,30.00,West,270,0.0,0.0,58,0.00,,OVC,0.00,VWS V14.00,2013-02-21 07:45:00,
2013-02-21 02:50:00,23.5,10.9,30.01,WNW,292,2.6,2.6,58,0.00,,OVC,0.00,VWS V14.00,2013-02-21 07:50:00,
2013-02-21 02:55:00,23.5,10.9,30.00,West,270,0.0,0.0,58,0.00,,OVC,0.00,VWS V14.00,2013-02-21 07:55:00,
2013-02-21 03:00:00,23.5,11.3,30.01,West,270,0.0,0.0,59,0.00,,OVC,0.00,VWS V14.00,2013-02-21 08:00:00,
2013-02-21 03:05:00,23.5,11.3,30.00,WNW,292,0.0,0.0,59,0.00,,OVC,0.00,VWS V14.00,2013-02-21 08:05:00,
2013-02-21 03:10:00,23.3,11.1,30.00,West,270,0.0,0.0,59,0.00,,OVC,0.00,VWS V14.00,2013-02-21 08:10:00,
2013-02-21 03:15:00,23.3,11.1,30.00,WNW,292,0.0,0.0,59,0.00,,OVC,0.00,VWS V14.00,2013-02-21 08:15:00,
2013-02-21 03:20:00,23.3,11.1,30.00,NNW,338,0.0,0.0,59,0.00,,OVC,0.00,VWS V14.00,2013-02-21 08:20:00,
2013-02-21 03:25:00,23.3,11.1,30.00,WNW,292,0.0,0.0,59,0.00,,OVC,0.00,VWS V14.00,2013-02-21 08:25:00,
2013-02-21 03:30:00,23.3,11.1,30.00,West,270,0.0,0.0,59,0.00,,OVC,0.00,VWS V14.00,2013-02-21 08:30:00,
2013-02-21 03:35:00,23.3,11.1,30.00,West,270,0.0,0.0,59,0.00,,OVC,0.00,VWS V14.00,2013-02-21 08:35:00,
2013-02-21 03:40:00,23.3,11.1,30.00,West,270,0.0,0.0,59,0.00,,OVC,0.00,VWS V14.00,2013-02-21 08:40:00,
2013-02-21 03:45:00,23.3,11.5,30.00,NW,315,0.0,0.0,60,0.00,,OVC,0.00,VWS V14.00,2013-02-21 08:45:00,
2013-02-21 03:50:00,23.3,11.5,30.00,WSW,248,0.0,0.0,60,0.00,,OVC,0.00,VWS V14.00,2013-02-21 08:50:00,
2013-02-21 03:55:00,23.3,11.5,30.00,West,270,0.0,0.0,60,0.00,,OVC,0.00,VWS V14.00,2013-02-21 08:55:00,
2013-02-21 04:00:00,23.3,11.5,30.00,WNW,292,0.0,0.0,60,0.00,,OVC,0.00,VWS V14.00,2013-02-21 09:00:00,
2013-02-21 04:05:00,23.3,11.5,30.00,North,0,0.0,0.0,60,0.00,,OVC,0.00,VWS V14.00,2013-02-21 09:05:00,
2013-02-21 04:10:00,23.1,11.3,30.00,WNW,292,0.0,0.0,60,0.00,,OVC,0.00,VWS V14.00,2013-02-21 09:10:00,
2013-02-21 04:15:00,23.1,11.7,30.01,West,270,0.0,0.0,61,0.00,,OVC,0.00,VWS V14.00,2013-02-21 09:15:00,
2013-02-21 04:20:00,23.3,11.9,30.01,West,270,0.0,0.0,61,0.00,,OVC,0.00,VWS V14.00,2013-02-21 09:20:00,
2013-02-21 04:25:00,23.3,11.9,30.01,West,270,0.0,0.0,61,0.00,,OVC,0.00,VWS V14.00,2013-02-21 09:25:00,
2013-02-21 04:30:00,23.3,11.9,30.01,West,270,0.0,0.0,61,0.00,,OVC,0.00,VWS V14.00,2013-02-21 09:30:00,
2013-02-21 04:35:00,23.3,11.9,30.01,West,270,0.0,0.0,61,0.00,,OVC,0.00,VWS V14.00,2013-02-21 09:35:00,
2013-02-21 04:40:00,23.5,12.0,30.01,WNW,292,0.0,0.0,61,0.00,,OVC,0.00,VWS V14.00,2013-02-21 09:40:00,
2013-02-21 04:45:00,23.5,12.0,30.01,WNW,292,0.0,0.0,61,0.00,,OVC,0.00,VWS V14.00,2013-02-21 09:45:00,
2013-02-21 04:50:00,23.5,12.0,30.02,SW,225,0.0,0.0,61,0.00,,OVC,0.00,VWS V14.00,2013-02-21 09:50:00,
2013-02-21 04:55:00,23.5,12.0,30.02,West,270,0.0,0.0,61,0.00,,OVC,0.00,VWS V14.00,2013-02-21 09:55:00,
2013-02-21 05:00:00,23.5,12.0,30.02,WSW,248,0.0,0.0,61,0.00,,OVC,0.00,VWS V14.00,2013-02-21 10:00:00,
2013-02-21 05:05:00,23.5,12.0,30.02,WNW,292,0.0,0.0,61,0.00,,OVC,0.00,VWS V14.00,2013-02-21 10:05:00,
2013-02-21 05:10:00,23.7,12.2,30.02,WNW,292,0.0,0.0,61,0.00,,OVC,0.00,VWS V14.00,2013-02-21 10:10:00,
2013-02-21 05:15:00,23.5,12.0,30.02,NNW,338,0.0,0.0,61,0.00,,OVC,0.00,VWS V14.00,2013-02-21 10:15:00,
2013-02-21 05:20:00,23.5,12.0,30.02,NNW,338,0.0,0.0,61,0.00,,OVC,0.00,VWS V14.00,2013-02-21 10:20:00,
2013-02-21 05:25:00,23.5,12.0,30.01,WNW,292,0.0,0.0,61,0.00,,OVC,0.00,VWS V14.00,2013-02-21 10:25:00,
2013-02-21 05:30:00,23.5,12.4,30.01,WNW,292,0.0,0.0,62,0.00,,OVC,0.00,VWS V14.00,2013-02-21 10:30:00,
2013-02-21 05:35:00,23.5,12.0,30.02,NW,315,1.3,1.3,61,0.00,,OVC,0.00,VWS V14.00,2013-02-21 10:35:00,
2013-02-21 05:40:00,23.5,12.4,30.02,West,270,0.0,0.0,62,0.00,,OVC,0.00,VWS V14.00,2013-02-21 10:40:00,
2013-02-21 05:45:00,23.5,12.0,30.02,West,270,0.0,0.0,61,0.00,,OVC,0.00,VWS V14.00,2013-02-21 10:45:00,
2013-02-21 05:50:00,23.5,12.4,30.02,NW,315,0.0,0.0,62,0.00,,OVC,0.00,VWS V14.00,2013-02-21 10:50:00,
2013-02-21 05:55:00,23.5,12.4,30.03,West,270,0.0,0.0,62,0.00,,OVC,0.00,VWS V14.00,2013-02-21 10:55:00,
2013-02-21 06:00:00,23.7,12.6,30.03,West,270,0.0,0.0,62,0.00,,OVC,0.00,VWS V14.00,2013-02-21 11:00:00,
2013-02-21 06:05:00,24.0,12.5,30.02,WSW,248,0.0,0.0,61,0.00,,OVC,0.00,VWS V14.00,2013-02-21 11:05:00,
2013-02-21 06:10:00,24.4,12.9,30.03,NW,315,0.0,0.0,61,0.00,,OVC,0.00,VWS V14.00,2013-02-21 11:10:00,
2013-02-21 06:15:00,24.6,13.1,30.03,WNW,292,0.0,0.0,61,0.00,,OVC,0.00,VWS V14.00,2013-02-21 11:15:00,
2013-02-21 06:20:00,24.9,13.0,30.03,NW,315,1.7,1.7,60,0.00,,OVC,0.00,VWS V14.00,2013-02-21 11:20:00,
2013-02-21 06:25:00,24.9,13.0,30.03,NW,315,0.0,0.0,60,0.00,,OVC,0.00,VWS V14.00,2013-02-21 11:25:00,
2013-02-21 06:30:00,25.3,13.4,30.03,North,0,0.0,0.0,60,0.00,,OVC,0.00,VWS V14.00,2013-02-21 11:30:00,
2013-02-21 06:35:00,25.5,13.6,30.03,NW,315,0.8,0.8,60,0.00,,OVC,0.00,VWS V14.00,2013-02-21 11:35:00,
2013-02-21 06:40:00,25.7,13.8,30.03,NE,45,8.7,8.7,60,0.00,,OVC,0.00,VWS V14.00,2013-02-21 11:40:00,
2013-02-21 06:45:00,25.8,13.5,30.03,West,270,0.0,0.0,59,0.00,,OVC,0.00,VWS V14.00,2013-02-21 11:45:00,
2013-02-21 06:50:00,25.8,13.5,30.03,NW,315,2.4,2.4,59,0.00,,OVC,0.00,VWS V14.00,2013-02-21 11:50:00,
2013-02-21 06:55:00,26.0,13.3,30.03,North,0,0.0,0.0,58,0.00,,OVC,0.00,VWS V14.00,2013-02-21 11:55:00,
2013-02-21 07:00:00,26.2,13.4,30.03,NW,315,0.0,0.0,58,0.00,,OVC,0.00,VWS V14.00,2013-02-21 12:00:00,
2013-02-21 07:05:00,26.4,13.6,30.04,West,270,0.0,0.0,58,0.00,,OVC,0.00,VWS V14.00,2013-02-21 12:05:00,
2013-02-21 07:10:00,26.4,13.6,30.04,WNW,292,0.0,0.0,58,0.00,,OVC,0.00,VWS V14.00,2013-02-21 12:10:00,
2013-02-21 07:15:00,26.6,13.4,30.04,West,270,2.0,2.0,57,0.00,,OVC,0.00,VWS V14.00,2013-02-21 12:15:00,
2013-02-21 07:20:00,26.7,13.5,30.04,WNW,292,0.0,0.0,57,0.00,,OVC,0.00,VWS V14.00,2013-02-21 12:20:00,
2013-02-21 07:25:00,26.7,13.9,30.04,NNW,338,0.0,0.0,58,0.00,,OVC,0.00,VWS V14.00,2013-02-21 12:25:00,
2013-02-21 07:30:00,26.9,14.1,30.05,West,270,0.0,0.0,58,0.00,,OVC,0.00,VWS V14.00,2013-02-21 12:30:00,
2013-02-21 07:35:00,27.1,13.9,30.05,NW,315,0.0,0.0,57,0.00,,OVC,0.00,VWS V14.00,2013-02-21 12:35:00,
2013-02-21 07:40:00,27.3,14.1,30.05,WNW,292,0.0,0.0,57,0.00,,OVC,0.00,VWS V14.00,2013-02-21 12:40:00,
2013-02-21 07:45:00,27.5,14.3,30.05,NNW,338,0.0,0.0,57,0.00,,OVC,0.00,VWS V14.00,2013-02-21 12:45:00,
2013-02-21 07:50:00,27.5,14.3,30.05,WNW,292,4.2,4.2,57,0.00,,OVC,0.00,VWS V14.00,2013-02-21 12:50:00,
2013-02-21 07:55:00,27.6,13.6,30.05,WSW,248,0.0,0.0,55,0.00,,OVC,0.00,VWS V14.00,2013-02-21 12:55:00,
2013-02-21 08:00:00,28.0,13.5,30.05,North,0,2.2,2.2,54,0.00,,OVC,0.00,VWS V14.00,2013-02-21 13:00:00,
2013-02-21 08:05:00,28.2,13.7,30.05,WNW,292,5.5,5.5,54,0.00,,OVC,0.00,VWS V14.00,2013-02-21 13:05:00,
2013-02-21 08:10:00,28.5,14.0,30.05,NNW,338,0.0,0.0,54,0.00,,OVC,0.00,VWS V14.00,2013-02-21 13:10:00,
2013-02-21 08:15:00,29.1,14.1,30.04,NW,315,7.1,7.1,53,0.00,,OVC,0.00,VWS V14.00,2013-02-21 13:15:00,
2013-02-21 08:20:00,30.2,13.8,30.04,West,270,0.0,0.0,50,0.00,,OVC,0.00,VWS V14.00,2013-02-21 13:20:00,
2013-02-21 08:25:00,30.7,14.3,30.04,West,270,0.0,0.0,50,0.00,,OVC,0.00,VWS V14.00,2013-02-21 13:25:00,
2013-02-21 08:30:00,31.2,14.7,30.04,WSW,248,0.0,0.0,50,0.00,,OVC,0.00,VWS V14.00,2013-02-21 13:30:00,
2013-02-21 08:35:00,32.1,14.6,30.04,NNW,338,5.3,5.3,48,0.00,,OVC,0.00,VWS V14.00,2013-02-21 13:35:00,
2013-02-21 08:40:00,32.5,14.5,30.03,NE,45,0.2,0.2,47,0.00,,OVC,0.00,VWS V14.00,2013-02-21 13:40:00,
2013-02-21 08:45:00,33.2,15.2,30.04,West,270,0.0,0.0,47,0.00,,OVC,0.00,VWS V14.00,2013-02-21 13:45:00,
2013-02-21 08:50:00,33.4,14.4,30.03,SE,135,7.1,7.1,45,0.00,,OVC,0.00,VWS V14.00,2013-02-21 13:50:00,
2013-02-21 08:55:00,33.6,14.5,30.03,North,0,0.2,0.2,45,0.00,,OVC,0.00,VWS V14.00,2013-02-21 13:55:00,
2013-02-21 09:00:00,33.9,14.8,30.03,WNW,292,1.7,1.7,45,0.00,,OVC,0.00,VWS V14.00,2013-02-21 14:00:00,
2013-02-21 09:05:00,34.3,14.1,30.03,WNW,292,3.3,3.3,43,0.00,,OVC,0.00,VWS V14.00,2013-02-21 14:05:00,
2013-02-21 09:10:00,34.3,14.7,30.04,WNW,292,1.5,1.5,44,0.00,,OVC,0.00,VWS V14.00,2013-02-21 14:10:00,
2013-02-21 09:15:00,34.3,15.2,30.03,North,0,2.9,2.9,45,0.00,,OVC,0.00,VWS V14.00,2013-02-21 14:15:00,
2013-02-21 09:20:00,34.3,14.1,30.03,NNW,338,0.0,0.0,43,0.00,,OVC,0.00,VWS V14.00,2013-02-21 14:20:00,
2013-02-21 09:25:00,34.3,14.1,30.03,WNW,292,1.5,1.5,43,0.00,,OVC,0.00,VWS V14.00,2013-02-21 14:25:00,
2013-02-21 09:30:00,34.3,14.7,30.04,WSW,248,3.1,3.1,44,0.00,,OVC,0.00,VWS V14.00,2013-02-21 14:30:00,
2013-02-21 09:35:00,34.7,14.5,30.04,SSW,202,0.6,0.6,43,0.00,,OVC,0.00,VWS V14.00,2013-02-21 14:35:00,
2013-02-21 09:40:00,34.7,14.5,30.03,NNE,22,10.5,10.5,43,0.00,,OVC,0.00,VWS V14.00,2013-02-21 14:40:00,
2013-02-21 09:45:00,34.5,14.3,30.03,WNW,292,2.4,2.4,43,0.00,,OVC,0.00,VWS V14.00,2013-02-21 14:45:00,
2013-02-21 09:50:00,34.8,15.1,30.04,West,270,0.0,0.0,44,0.00,,OVC,0.00,VWS V14.00,2013-02-21 14:50:00,
2013-02-21 09:55:00,35.7,15.9,30.04,South,180,4.4,4.4,44,0.00,,OVC,0.00,VWS V14.00,2013-02-21 14:55:00,
2013-02-21 10:00:00,35.4,15.1,30.04,NW,315,1.1,1.1,43,0.00,,OVC,0.00,VWS V14.00,2013-02-21 15:00:00,
2013-02-21 10:05:00,35.4,15.7,30.03,NNW,338,1.3,1.3,44,0.00,,OVC,0.00,VWS V14.00,2013-02-21 15:05:00,
2013-02-21 10:10:00,36.3,16.0,30.03,WNW,292,2.0,2.0,43,0.00,,OVC,0.00,VWS V14.00,2013-02-21 15:10:00,
2013-02-21 10:15:00,36.5,15.6,30.03,NNE,22,1.7,1.7,42,0.00,,OVC,0.00,VWS V14.00,2013-02-21 15:15:00,
2013-02-21 10:20:00,36.6,15.7,30.03,WSW,248,0.8,0.8,42,0.00,,OVC,0.00,VWS V14.00,2013-02-21 15:20:00,
2013-02-21 10:24:00,36.5,16.1,30.03,NW,315,4.9,4.9,43,0.00,,OVC,0.00,VWS V14.00,2013-02-21 15:24:00,
2013-02-21 10:29:00,36.8,16.4,30.03,WNW,292,2.0,5.1,43,0.00,,OVC,0.00,VWS V14.00,2013-02-21 15:29:00,
2013-02-21 10:34:00,37.2,16.2,30.03,North,0,13.8,13.8,42,0.00,,OVC,0.00,VWS V14.00,2013-02-21 15:34:00,
2013-02-21 10:39:00,37.4,16.4,30.03,North,0,3.8,6.7,42,0.00,,OVC,0.00,VWS V14.00,2013-02-21 15:39:00,
2013-02-21 10:44:00,37.2,16.2,30.03,NW,315,5.5,5.5,42,0.00,,OVC,0.00,VWS V14.00,2013-02-21 15:44:00,
2013-02-21 10:49:00,37.2,16.2,30.03,West,270,3.8,11.1,42,0.00,,OVC,0.00,VWS V14.00,2013-02-21 15:49:00,
2013-02-21 10:54:00,37.2,16.2,30.03,WSW,248,4.4,4.4,42,0.00,,OVC,0.00,VWS V14.00,2013-02-21 15:54:00,
2013-02-21 10:59:00,36.6,15.1,30.03,ENE,68,4.6,4.6,41,0.00,,OVC,0.00,VWS V14.00,2013-02-21 15:59:00,
2013-02-21 11:04:00,36.1,15.2,30.03,WNW,292,3.3,3.3,42,0.00,,OVC,0.00,VWS V14.00,2013-02-21 16:04:00,
2013-02-21 11:09:00,36.5,16.1,30.03,ENE,68,0.0,0.6,43,0.00,,OVC,0.00,VWS V14.00,2013-02-21 16:09:00,
2013-02-21 11:14:00,37.0,16.1,30.03,WNW,292,10.5,10.5,42,0.00,,OVC,0.00,VWS V14.00,2013-02-21 16:14:00,
2013-02-21 11:19:00,37.2,16.2,30.03,NW,315,0.0,0.0,42,0.00,,OVC,0.00,VWS V14.00,2013-02-21 16:19:00,
2013-02-21 11:24:00,37.2,16.2,30.03,WNW,292,6.9,6.9,42,0.00,,OVC,0.00,VWS V14.00,2013-02-21 16:24:00,
2013-02-21 11:29:00,37.9,16.3,30.03,West,270,0.0,5.5,41,0.00,,OVC,0.00,VWS V14.00,2013-02-21 16:29:00,
2013-02-21 11:34:00,38.1,17.0,30.03,NNW,338,7.1,7.1,42,0.00,,OVC,0.00,VWS V14.00,2013-02-21 16:34:00,
2013-02-21 11:39:00,37.9,16.9,30.03,NNW,338,3.5,3.5,42,0.00,,OVC,0.00,VWS V14.00,2013-02-21 16:39:00,
2013-02-21 11:44:00,37.9,16.3,30.03,WNW,292,9.8,9.8,41,0.00,,OVC,0.00,VWS V14.00,2013-02-21 16:44:00,
2013-02-21 11:49:00,37.7,16.7,30.02,West,270,0.6,0.6,42,0.00,,OVC,0.00,VWS V14.00,2013-02-21 16:49:00,
2013-02-21 11:54:00,38.1,16.5,30.03,NE,45,4.9,4.9,41,0.00,,OVC,0.00,VWS V14.00,2013-02-21 16:54:00,
2013-02-21 11:59:00,38.1,16.5,30.03,WNW,292,3.5,6.9,41,0.00,,OVC,0.00,VWS V14.00,2013-02-21 16:59:00,
2013-02-21 12:04:00,38.1,16.5,30.03,NNW,338,3.8,3.8,41,0.00,,OVC,0.00,VWS V14.00,2013-02-21 17:04:00,
2013-02-21 12:09:00,38.3,16.7,30.02,West,270,0.0,0.0,41,0.00,,OVC,0.00,VWS V14.00,2013-02-21 17:09:00,
2013-02-21 12:14:00,38.3,17.2,30.01,West,270,6.7,6.7,42,0.00,,OVC,0.00,VWS V14.00,2013-02-21 17:14:00,
2013-02-21 12:19:00,38.4,16.8,30.01,West,270,4.9,4.9,41,0.00,,OVC,0.00,VWS V14.00,2013-02-21 17:19:00,
2013-02-21 12:24:00,38.8,17.1,30.02,NW,315,10.5,10.5,41,0.00,,OVC,0.00,VWS V14.00,2013-02-21 17:24:00,
2013-02-21 12:29:00,38.8,17.1,30.01,WNW,292,7.3,7.3,41,0.00,,OVC,0.00,VWS V14.00,2013-02-21 17:29:00,
2013-02-21 12:34:00,38.4,16.2,30.02,NW,315,7.8,7.8,40,0.00,,OVC,0.00,VWS V14.00,2013-02-21 17:34:00,
2013-02-21 12:39:00,38.3,16.7,30.01,West,270,2.9,2.9,41,0.00,,OVC,0.00,VWS V14.00,2013-02-21 17:39:00,
2013-02-21 12:44:00,38.4,17.3,30.00,WNW,292,6.0,6.0,42,0.00,,OVC,0.00,VWS V14.00,2013-02-21 17:44:00,
2013-02-21 12:49:00,38.8,17.1,30.01,East,90,5.1,5.1,41,0.00,,OVC,0.00,VWS V14.00,2013-02-21 17:49:00,
2013-02-21 12:54:00,38.3,16.7,30.01,North,0,4.2,4.2,41,0.00,,OVC,0.00,VWS V14.00,2013-02-21 17:54:00,
2013-02-21 12:59:00,38.1,16.5,30.01,NNW,338,4.4,4.4,41,0.00,,OVC,0.00,VWS V14.00,2013-02-21 17:59:00,
2013-02-21 13:04:00,38.1,16.5,30.00,NW,315,18.7,18.7,41,0.00,,OVC,0.00,VWS V14.00,2013-02-21 18:04:00,
2013-02-21 13:09:00,37.5,16.0,30.01,NE,45,0.8,0.8,41,0.00,,OVC,0.00,VWS V14.00,2013-02-21 18:09:00,
2013-02-21 13:14:00,37.2,16.2,30.01,NW,315,1.5,1.5,42,0.00,,OVC,0.00,VWS V14.00,2013-02-21 18:14:00,
2013-02-21 13:19:00,37.2,15.7,30.01,NNW,338,1.1,1.1,41,0.00,,OVC,0.00,VWS V14.00,2013-02-21 18:19:00,
2013-02-21 13:24:00,37.2,16.2,30.01,NW,315,6.9,6.9,42,0.00,,OVC,0.00,VWS V14.00,2013-02-21 18:24:00,
2013-02-21 13:29:00,37.2,16.2,30.01,West,270,8.5,8.5,42,0.00,,OVC,0.00,VWS V14.00,2013-02-21 18:29:00,
2013-02-21 13:34:00,37.4,17.0,30.01,NW,315,1.7,1.7,43,0.00,,OVC,0.00,VWS V14.00,2013-02-21 18:34:00,
2013-02-21 13:39:00,37.5,16.5,30.01,West,270,3.1,3.1,42,0.00,,OVC,0.00,VWS V14.00,2013-02-21 18:39:00,
2013-02-21 13:44:00,37.7,16.1,30.01,NNE,22,3.8,3.8,41,0.00,,OVC,0.00,VWS V14.00,2013-02-21 18:44:00,
2013-02-21 13:49:00,37.5,16.5,30.01,WNW,292,1.7,1.7,42,0.00,,OVC,0.00,VWS V14.00,2013-02-21 18:49:00,
2013-02-21 13:54:00,37.9,16.9,30.01,West,270,3.5,3.5,42,0.00,,OVC,0.00,VWS V14.00,2013-02-21 18:54:00,
2013-02-21 13:59:00,38.1,16.5,30.01,North,0,3.5,3.5,41,0.00,,OVC,0.00,VWS V14.00,2013-02-21 18:59:00,
2013-02-21 14:04:00,37.5,16.0,30.01,WNW,292,4.9,4.9,41,0.00,,OVC,0.00,VWS V14.00,2013-02-21 19:04:00,
2013-02-21 14:09:00,37.7,16.7,30.01,NE,45,7.3,7.3,42,0.00,,OVC,0.00,VWS V14.00,2013-02-21 19:09:00,
2013-02-21 14:14:00,37.9,16.9,30.01,WSW,248,0.0,0.0,42,0.00,,OVC,0.00,VWS V14.00,2013-02-21 19:14:00,
2013-02-21 14:19:00,37.9,16.3,30.01,WSW,248,6.0,6.0,41,0.00,,OVC,0.00,VWS V14.00,2013-02-21 19:19:00,
2013-02-21 14:24:00,38.1,17.0,30.01,SW,225,1.1,1.1,42,0.00,,OVC,0.00,VWS V14.00,2013-02-21 19:24:00,
2013-02-21 14:29:00,37.9,16.9,30.02,NW,315,2.6,2.6,42,0.00,,OVC,0.00,VWS V14.00,2013-02-21 19:29:00,
2013-02-21 14:34:00,37.9,16.9,30.02,NW,315,4.4,4.4,42,0.00,,OVC,0.00,VWS V14.00,2013-02-21 19:34:00,
2013-02-21 14:39:00,37.9,16.9,30.02,NE,45,4.9,4.9,42,0.00,,OVC,0.00,VWS V14.00,2013-02-21 19:39:00,
2013-02-21 14:44:00,38.1,17.0,30.02,WNW,292,3.8,3.8,42,0.00,,OVC,0.00,VWS V14.00,2013-02-21 19:44:00,
2013-02-21 14:49:00,38.1,17.0,30.01,WNW,292,14.5,14.5,42,0.00,,OVC,0.00,VWS V14.00,2013-02-21 19:49:00,
2013-02-21 14:54:00,38.1,16.5,30.02,NW,315,3.5,3.5,41,0.00,,OVC,0.00,VWS V14.00,2013-02-21 19:54:00,
2013-02-21 14:59:00,38.1,16.5,30.01,NNW,338,2.4,2.4,41,0.00,,OVC,0.00,VWS V14.00,2013-02-21 19:59:00,
2013-02-21 15:04:00,37.9,16.3,30.01,NW,315,11.6,11.6,41,0.00,,OVC,0.00,VWS V14.00,2013-02-21 20:04:00,
2013-02-21 15:09:00,37.7,16.7,30.01,WNW,292,7.3,7.3,42,0.00,,OVC,0.00,VWS V14.00,2013-02-21 20:09:00,
2013-02-21 15:14:00,37.7,16.7,30.01,North,0,11.4,11.4,42,0.00,,OVC,0.00,VWS V14.00,2013-02-21 20:14:00,
2013-02-21 15:19:00,37.7,16.7,30.02,NW,315,1.1,1.1,42,0.00,,OVC,0.00,VWS V14.00,2013-02-21 20:19:00,
2013-02-21 15:24:00,37.7,16.1,30.01,NNW,338,1.3,1.3,41,0.00,,OVC,0.00,VWS V14.00,2013-02-21 20:24:00,
2013-02-21 15:29:00,37.4,16.4,30.02,North,0,6.2,6.2,42,0.00,,OVC,0.00,VWS V14.00,2013-02-21 20:29:00,
2013-02-21 15:34:00,37.2,16.2,30.02,NW,315,0.0,0.0,42,0.00,,OVC,0.00,VWS V14.00,2013-02-21 20:34:00,
2013-02-21 15:39:00,37.2,16.2,30.01,WSW,248,5.8,5.8,42,0.00,,OVC,0.00,VWS V14.00,2013-02-21 20:39:00,
2013-02-21 15:44:00,37.2,16.2,30.02,ENE,68,0.6,0.6,42,0.00,,OVC,0.00,VWS V14.00,2013-02-21 20:44:00,
2013-02-21 15:49:00,37.2,16.8,30.03,WSW,248,3.8,3.8,43,0.00,,OVC,0.00,VWS V14.00,2013-02-21 20:49:00,
2013-02-21 15:54:00,37.2,16.8,30.03,West,270,0.0,0.0,43,0.00,,OVC,0.00,VWS V14.00,2013-02-21 20:54:00,
2013-02-21 15:59:00,37.0,16.1,30.03,ENE,68,16.1,16.1,42,0.00,,OVC,0.00,VWS V14.00,2013-02-21 20:59:00,
2013-02-21 16:04:00,37.0,16.6,30.03,WNW,292,4.6,4.6,43,0.00,,OVC,0.00,VWS V14.00,2013-02-21 21:04:00,
2013-02-21 16:09:00,37.0,16.6,30.04,North,0,6.0,6.0,43,0.00,,OVC,0.00,VWS V14.00,2013-02-21 21:09:00,
2013-02-21 16:14:00,36.8,16.4,30.04,WNW,292,4.0,4.0,43,0.00,,OVC,0.00,VWS V14.00,2013-02-21 21:14:00,
2013-02-21 16:19:00,36.6,16.2,30.04,ENE,68,8.0,8.0,43,0.00,,OVC,0.00,VWS V14.00,2013-02-21 21:19:00,
2013-02-21 16:24:00,36.5,16.1,30.05,East,90,1.1,1.1,43,0.00,,OVC,0.00,VWS V14.00,2013-02-21 21:24:00,
2013-02-21 16:29:00,36.3,16.0,30.05,North,0,10.9,10.9,43,0.00,,OVC,0.00,VWS V14.00,2013-02-21 21:29:00,
2013-02-21 16:34:00,36.1,16.3,30.05,West,270,0.0,0.0,44,0.00,,OVC,0.00,VWS V14.00,2013-02-21 21:34:00,
2013-02-21 16:39:00,36.1,16.3,30.05,NNW,338,0.0,0.0,44,0.00,,OVC,0.00,VWS V14.00,2013-02-21 21:39:00,
2013-02-21 16:44:00,35.9,16.1,30.05,West,270,2.0,2.0,44,0.00,,OVC,0.00,VWS V14.00,2013-02-21 21:44:00,
2013-02-21 16:49:00,35.7,15.9,30.06,NE,45,0.0,0.0,44,0.00,,OVC,0.00,VWS V14.00,2013-02-21 21:49:00,
2013-02-21 16:54:00,35.4,16.2,30.06,North,0,3.5,3.5,45,0.00,,OVC,0.00,VWS V14.00,2013-02-21 21:54:00,
2013-02-21 16:59:00,35.4,16.2,30.07,ENE,68,4.2,4.2,45,0.00,,OVC,0.00,VWS V14.00,2013-02-21 21:59:00,
2013-02-21 17:04:00,35.4,16.2,30.06,ENE,68,0.0,0.0,45,0.00,,OVC,0.00,VWS V14.00,2013-02-21 22:04:00,
2013-02-21 17:09:00,35.2,16.0,30.08,NE,45,9.8,9.8,45,0.00,,OVC,0.00,VWS V14.00,2013-02-21 22:09:00,
2013-02-21 17:14:00,35.2,16.5,30.08,WNW,292,0.2,0.2,46,0.00,,OVC,0.00,VWS V14.00,2013-02-21 22:14:00,
2013-02-21 17:19:00,34.8,16.1,30.08,NE,45,0.0,0.0,46,0.00,,OVC,0.00,VWS V14.00,2013-02-21 22:19:00,
2013-02-21 17:24:00,34.7,16.0,30.08,East,90,15.8,15.8,46,0.00,,OVC,0.00,VWS V14.00,2013-02-21 22:24:00,
2013-02-21 17:29:00,34.5,15.9,30.09,NW,315,0.0,0.0,46,0.00,,OVC,0.00,VWS V14.00,2013-02-21 22:29:00,
2013-02-21 17:34:00,34.3,16.2,30.09,WSW,248,0.0,0.0,47,0.00,,OVC,0.00,VWS V14.00,2013-02-21 22:34:00,
2013-02-21 17:39:00,34.3,16.2,30.09,NNW,338,5.5,5.5,47,0.00,,OVC,0.00,VWS V14.00,2013-02-21 22:39:00,
2013-02-21 17:44:00,34.1,16.0,30.09,NW,315,3.3,3.3,47,0.00,,OVC,0.00,VWS V14.00,2013-02-21 22:44:00,
2013-02-21 17:49:00,33.8,15.7,30.10,NE,45,2.9,2.9,47,0.00,,OVC,0.00,VWS V14.00,2013-02-21 22:49:00,
2013-02-21 17:54:00,33.6,16.0,30.09,WNW,292,0.0,0.0,48,0.00,,OVC,0.00,VWS V14.00,2013-02-21 22:54:00,
2013-02-21 17:59:00,33.4,15.8,30.09,NE,45,0.0,0.0,48,0.00,,OVC,0.00,VWS V14.00,2013-02-21 22:59:00,
2013-02-21 18:04:00,33.4,15.8,30.10,NW,315,10.7,10.7,48,0.00,,OVC,0.00,VWS V14.00,2013-02-21 23:04:00,
2013-02-21 18:09:00,33.0,15.5,30.10,NE,45,2.2,2.2,48,0.00,,OVC,0.00,VWS V14.00,2013-02-21 23:09:00,
2013-02-21 18:14:00,32.9,15.4,30.10,North,0,1.3,1.3,48,0.00,,OVC,0.00,VWS V14.00,2013-02-21 23:14:00,
2013-02-21 18:19:00,32.7,15.7,30.10,NNE,22,4.9,4.9,49,0.00,,OVC,0.00,VWS V14.00,2013-02-21 23:19:00,
2013-02-21 18:24:00,32.5,15.5,30.10,West,270,0.0,0.0,49,0.00,,OVC,0.00,VWS V14.00,2013-02-21 23:24:00,
2013-02-21 18:29:00,32.3,15.8,30.10,NW,315,5.5,5.5,50,0.00,,OVC,0.00,VWS V14.00,2013-02-21 23:29:00,
2013-02-21 18:34:00,32.1,15.1,30.11,SE,135,2.9,2.9,49,0.00,,OVC,0.00,VWS V14.00,2013-02-21 23:34:00,
2013-02-21 18:39:00,32.1,15.6,30.11,NNW,338,4.6,4.6,50,0.00,,OVC,0.00,VWS V14.00,2013-02-21 23:39:00,
2013-02-21 18:44:00,31.8,15.3,30.11,NNE,22,0.0,0.0,50,0.00,,OVC,0.00,VWS V14.00,2013-02-21 23:44:00,
2013-02-21 18:49:00,31.8,15.3,30.12,North,0,5.1,5.1,50,0.00,,OVC,0.00,VWS V14.00,2013-02-21 23:49:00,
2013-02-21 18:54:00,31.6,15.1,30.14,NNE,22,0.0,0.0,50,0.00,,OVC,0.00,VWS V14.00,2013-02-21 23:54:00,
2013-02-21 18:59:00,31.6,15.6,30.15,WNW,292,5.3,5.3,51,0.00,,OVC,0.00,VWS V14.00,2013-02-21 23:59:00,
2013-02-21 19:04:00,31.4,15.4,30.15,NW,315,4.9,4.9,51,0.00,,OVC,0.00,VWS V14.00,2013-02-22 00:04:00,
2013-02-21 19:09:00,31.2,15.2,30.16,WSW,248,1.5,1.5,51,0.00,,OVC,0.00,VWS V14.00,2013-02-22 00:09:00,
2013-02-21 19:14:00,31.1,15.1,30.16,NE,45,4.0,4.0,51,0.00,,OVC,0.00,VWS V14.00,2013-02-22 00:14:00,
2013-02-21 19:19:00,31.1,15.1,30.17,North,0,10.7,10.7,51,0.00,,OVC,0.00,VWS V14.00,2013-02-22 00:19:00,
2013-02-21 19:24:00,30.9,14.9,30.18,NNW,338,0.0,0.0,51,0.00,,OVC,0.00,VWS V14.00,2013-02-22 00:24:00,
2013-02-21 19:29:00,30.9,14.9,30.18,NNW,338,9.1,9.1,51,0.00,,OVC,0.00,VWS V14.00,2013-02-22 00:29:00,
2013-02-21 19:34:00,30.7,14.7,30.19,NNE,22,9.1,9.1,51,0.00,,OVC,0.00,VWS V14.00,2013-02-22 00:34:00,
2013-02-21 19:39:00,30.7,14.7,30.19,NNW,338,0.0,0.0,51,0.00,,OVC,0.00,VWS V14.00,2013-02-22 00:39:00,
2013-02-21 19:44:00,30.7,14.7,30.19,NW,315,0.0,0.0,51,0.00,,OVC,0.00,VWS V14.00,2013-02-22 00:44:00,
2013-02-21 19:49:00,30.5,14.5,30.19,NNW,338,2.9,2.9,51,0.00,,OVC,0.00,VWS V14.00,2013-02-22 00:49:00,
2013-02-21 19:54:00,30.3,14.8,30.20,North,0,4.9,4.9,52,0.00,,OVC,0.00,VWS V14.00,2013-02-22 00:54:00,
2013-02-21 19:59:00,30.3,14.8,30.21,NNE,22,0.0,0.0,52,0.00,,OVC,0.00,VWS V14.00,2013-02-22 00:59:00,
2013-02-21 20:04:00,30.3,14.8,30.22,NE,45,1.3,1.3,52,0.00,,OVC,0.00,VWS V14.00,2013-02-22 01:04:00,
2013-02-21 20:09:00,30.2,14.7,30.22,NW,315,7.6,7.6,52,0.00,,OVC,0.00,VWS V14.00,2013-02-22 01:09:00,
2013-02-21 20:14:00,30.0,14.5,30.23,NNE,22,1.1,1.1,52,0.00,,OVC,0.00,VWS V14.00,2013-02-22 01:14:00,
2013-02-21 20:19:00,30.0,14.5,30.23,NW,315,2.9,2.9,52,0.00,,OVC,0.00,VWS V14.00,2013-02-22 01:19:00,
2013-02-21 20:24:00,29.8,14.3,30.24,NNW,338,2.2,2.2,52,0.00,,OVC,0.00,VWS V14.00,2013-02-22 01:24:00,
2013-02-21 20:29:00,29.6,14.1,30.24,NNE,22,1.3,1.3,52,0.00,,OVC,0.00,VWS V14.00,2013-02-22 01:29:00,
2013-02-21 20:34:00,29.4,14.4,30.24,WNW,292,0.0,0.0,53,0.00,,OVC,0.00,VWS V14.00,2013-02-22 01:34:00,
2013-02-21 20:39:00,29.3,14.3,30.24,WNW,292,0.0,0.0,53,0.00,,OVC,0.00,VWS V14.00,2013-02-22 01:39:00,
2013-02-21 20:44:00,29.1,14.1,30.24,NNE,22,0.0,0.0,53,0.00,,OVC,0.00,VWS V14.00,2013-02-22 01:44:00,
2013-02-21 20:49:00,29.1,14.5,30.24,North,0,2.6,2.6,54,0.00,,OVC,0.00,VWS V14.00,2013-02-22 01:49:00,
2013-02-21 20:54:00,28.9,14.4,30.24,NW,315,0.0,0.0,54,0.00,,OVC,0.00,VWS V14.00,2013-02-22 01:54:00,
2013-02-21 20:59:00,28.7,14.2,30.24,NNE,22,0.0,0.0,54,0.00,,OVC,0.00,VWS V14.00,2013-02-22 01:59:00,
2013-02-21 21:04:00,28.5,14.0,30.24,NE,45,3.5,3.5,54,0.00,,OVC,0.00,VWS V14.00,2013-02-22 02:04:00,
2013-02-21 21:09:00,28.4,14.3,30.24,North,0,0.0,0.0,55,0.00,,OVC,0.00,VWS V14.00,2013-02-22 02:09:00,
2013-02-21 21:14:00,28.2,14.1,30.24,NNW,338,0.0,0.0,55,0.00,,OVC,0.00,VWS V14.00,2013-02-22 02:14:00,
2013-02-21 21:19:00,28.2,13.7,30.24,WNW,292,0.0,0.0,54,0.00,,OVC,0.00,VWS V14.00,2013-02-22 02:19:00,
2013-02-21 21:24:00,28.2,14.1,30.24,NE,45,3.3,3.3,55,0.00,,OVC,0.00,VWS V14.00,2013-02-22 02:24:00,
2013-02-21 21:29:00,28.0,13.9,30.24,NNW,338,0.0,0.0,55,0.00,,OVC,0.00,VWS V14.00,2013-02-22 02:29:00,
2013-02-21 21:34:00,27.6,13.6,30.24,NNE,22,3.5,3.5,55,0.00,,OVC,0.00,VWS V14.00,2013-02-22 02:34:00,
2013-02-21 21:39:00,27.6,13.6,30.24,North,0,0.0,0.0,55,0.00,,OVC,0.00,VWS V14.00,2013-02-22 02:39:00,
2013-02-21 21:44:00,27.6,14.0,30.24,NNE,22,6.0,6.0,56,0.00,,OVC,0.00,VWS V14.00,2013-02-22 02:44:00,
2013-02-21 21:49:00,27.6,14.0,30.24,NNE,22,0.0,0.0,56,0.00,,OVC,0.00,VWS V14.00,2013-02-22 02:49:00,
2013-02-21 21:54:00,27.5,13.9,30.24,NNE,22,0.0,0.0,56,0.00,,OVC,0.00,VWS V14.00,2013-02-22 02:54:00,
2013-02-21 21:59:00,27.3,13.7,30.24,NNE,22,16.5,16.5,56,0.00,,OVC,0.00,VWS V14.00,2013-02-22 02:59:00,
2013-02-21 22:04:00,27.1,13.5,30.24,North,0,0.0,0.0,56,0.00,,OVC,0.00,VWS V14.00,2013-02-22 03:04:00,
2013-02-21 22:09:00,27.1,13.9,30.24,WSW,248,0.0,0.0,57,0.00,,OVC,0.00,VWS V14.00,2013-02-22 03:09:00,
2013-02-21 22:14:00,27.1,13.9,30.24,NNE,22,0.0,0.0,57,0.00,,OVC,0.00,VWS V14.00,2013-02-22 03:14:00,
2013-02-21 22:19:00,26.9,14.1,30.24,North,0,1.3,1.3,58,0.00,,OVC,0.00,VWS V14.00,2013-02-22 03:19:00,
2013-02-21 22:24:00,26.9,14.1,30.24,NE,45,0.0,0.0,58,0.00,,OVC,0.00,VWS V14.00,2013-02-22 03:24:00,
2013-02-21 22:29:00,26.7,13.9,30.24,NNW,338,3.5,3.5,58,0.00,,OVC,0.00,VWS V14.00,2013-02-22 03:29:00,
2013-02-21 22:34:00,26.7,13.9,30.24,ENE,68,0.0,0.0,58,0.00,,OVC,0.00,VWS V14.00,2013-02-22 03:34:00,
2013-02-21 22:39:00,26.7,13.9,30.24,North,0,0.0,0.0,58,0.00,,OVC,0.00,VWS V14.00,2013-02-22 03:39:00,
2013-02-21 22:44:00,26.7,13.9,30.24,North,0,4.0,4.0,58,0.00,,OVC,0.00,VWS V14.00,2013-02-22 03:44:00,
2013-02-21 22:49:00,26.6,14.2,30.24,NNE,22,5.3,5.3,59,0.00,,OVC,0.00,VWS V14.00,2013-02-22 03:49:00,
2013-02-21 22:54:00,26.6,14.6,30.25,North,0,0.0,0.0,60,0.00,,OVC,0.00,VWS V14.00,2013-02-22 03:54:00,
2013-02-21 22:59:00,26.4,14.0,30.26,North,0,0.0,0.0,59,0.00,,OVC,0.00,VWS V14.00,2013-02-22 03:59:00,
2013-02-21 23:04:00,26.4,14.0,30.25,NE,45,0.8,0.8,59,0.00,,OVC,0.00,VWS V14.00,2013-02-22 04:04:00,
2013-02-21 23:09:00,26.4,14.4,30.26,NNE,22,0.0,0.0,60,0.00,,OVC,0.00,VWS V14.00,2013-02-22 04:09:00,
2013-02-21 23:14:00,26.4,14.4,30.27,NNW,338,0.0,0.0,60,0.00,,OVC,0.00,VWS V14.00,2013-02-22 04:14:00,
2013-02-21 23:19:00,26.4,14.4,30.27,NNE,22,9.8,9.8,60,0.00,,OVC,0.00,VWS V14.00,2013-02-22 04:19:00,
2013-02-21 23:24:00,26.4,14.4,30.27,NNE,22,1.1,1.1,60,0.00,,OVC,0.00,VWS V14.00,2013-02-22 04:24:00,
2013-02-21 23:29:00,26.4,14.4,30.27,NNE,22,2.2,2.2,60,0.00,,OVC,0.00,VWS V14.00,2013-02-22 04:29:00,
2013-02-21 23:34:00,26.2,14.2,30.27,NE,45,0.0,0.0,60,0.00,,OVC,0.00,VWS V14.00,2013-02-22 04:34:00,
2013-02-21 23:39:00,26.2,14.6,30.27,NNE,22,0.0,0.0,61,0.00,,OVC,0.00,VWS V14.00,2013-02-22 04:39:00,
2013-02-21 23:44:00,26.2,14.6,30.26,NNW,338,0.0,0.0,61,0.00,,OVC,0.00,VWS V14.00,2013-02-22 04:44:00,
2013-02-21 23:49:00,26.0,14.4,30.27,NNE,22,0.0,0.0,61,0.00,,OVC,0.00,VWS V14.00,2013-02-22 04:49:00,
2013-02-21 23:54:00,25.8,14.2,30.27,NNW,338,0.0,0.0,61,0.00,,OVC,0.00,VWS V14.00,2013-02-22 04:54:00,
2013-02-21 23:59:00,25.8,14.2,30.27,NNW,338,0.0,0.0,61,0.00,,OVC,0.00,VWS V14.00,2013-02-22 04:59:00,